Time;durP1;ratioP1;P1;durP2;ratioP2;P2;SDS_P1;SDS_P2;PMS_P1;PMS_P2;Temp;Humidity;BMP_temperature;BMP_pressure;BME280_temperature;BME280_humidity;BME280_pressure;Samples;Min_cycle;Max_cycle;Signal;HPM_P1;HPM_P2
2021/10/27 00:01:28;;;;;;;4.90;4.50;;;11.40;99.90;;;;;;5092045;28;20236;-67
2021/10/27 00:03:53;;;;;;;3.57;3.13;;;11.40;99.90;;;;;;5092011;28;20405;-67
2021/10/27 00:06:20;;;;;;;5.13;3.83;;;11.50;99.90;;;;;;5092055;28;20258;-66
2021/10/27 00:08:49;;;;;;;7.70;3.80;;;11.50;99.90;;;;;;5091679;28;20573;-66
2021/10/27 00:11:15;;;;;;;5.47;4.20;;;11.50;99.90;;;;;;5091624;28;20464;-67
2021/10/27 00:13:41;;;;;;;6.90;6.27;;;11.60;99.90;;;;;;5091959;28;20405;-66
2021/10/27 00:16:07;;;;;;;5.10;4.43;;;11.60;99.90;;;;;;5091867;28;20919;-67
2021/10/27 00:18:32;;;;;;;5.10;4.70;;;11.50;99.90;;;;;;5091582;28;20244;-67
2021/10/27 00:20:58;;;;;;;5.10;4.37;;;11.50;99.90;;;;;;5091711;28;20625;-67
2021/10/27 00:23:23;;;;;;;5.10;3.90;;;11.50;99.90;;;;;;5091934;28;20174;-67
2021/10/27 00:25:49;;;;;;;5.30;4.80;;;11.50;99.90;;;;;;5091824;28;20167;-68
2021/10/27 00:28:14;;;;;;;4.27;3.97;;;11.50;99.90;;;;;;5091501;28;20174;-67
2021/10/27 00:30:40;;;;;;;7.57;4.57;;;11.50;99.90;;;;;;5091570;28;20739;-67
2021/10/27 00:33:06;;;;;;;6.37;4.80;;;11.50;99.90;;;;;;5092300;28;20268;-67
2021/10/27 00:35:31;;;;;;;4.47;3.80;;;11.60;99.90;;;;;;5091844;28;20228;-67
2021/10/27 00:37:58;;;;;;;6.00;5.40;;;11.50;99.90;;;;;;5094911;28;20170;-67
2021/10/27 00:40:23;;;;;;;7.77;5.30;;;11.50;99.90;;;;;;5095527;28;20194;-67
2021/10/27 00:42:49;;;;;;;6.77;5.70;;;11.50;99.90;;;;;;5095751;28;20415;-67
2021/10/27 00:45:15;;;;;;;8.37;7.57;;;11.60;99.90;;;;;;5095695;28;20167;-67
2021/10/27 00:47:40;;;;;;;6.03;4.60;;;11.50;99.90;;;;;;5095498;28;20754;-67
2021/10/27 00:50:06;;;;;;;7.93;5.43;;;11.50;99.90;;;;;;5095092;28;20206;-67
2021/10/27 00:52:32;;;;;;;6.70;5.50;;;11.50;99.90;;;;;;5095517;28;20171;-67
2021/10/27 00:54:58;;;;;;;7.50;6.80;;;11.50;99.90;;;;;;5095525;28;20209;-67
2021/10/27 00:57:24;;;;;;;8.17;5.90;;;11.50;99.90;;;;;;5095446;28;20619;-67
2021/10/27 00:59:50;;;;;;;5.67;5.10;;;11.60;99.90;;;;;;5094815;28;20466;-67
2021/10/27 01:02:17;;;;;;;6.03;5.53;;;11.60;99.90;;;;;;5095327;28;20404;-67
2021/10/27 01:04:43;;;;;;;6.40;5.10;;;11.60;99.90;;;;;;5095276;28;20397;-67
2021/10/27 01:07:08;;;;;;;6.67;5.17;;;11.50;99.90;;;;;;5095285;28;20409;-67
2021/10/27 01:09:36;;;;;;;5.00;4.57;;;11.50;99.90;;;;;;5094682;28;20936;-68
2021/10/27 01:12:02;;;;;;;5.10;4.60;;;11.50;99.90;;;;;;5095144;28;20190;-67
2021/10/27 01:14:45;;;;;;;10.77;6.30;;;11.60;99.90;;;;;;5095083;28;20902;-67
2021/10/27 01:17:14;;;;;;;10.10;6.60;;;11.50;99.90;;;;;;5094957;28;20813;-67
2021/10/27 01:19:52;;;;;;;5.47;4.97;;;11.60;99.90;;;;;;5094622;28;20843;-67
2021/10/27 01:22:20;;;;;;;8.77;5.83;;;11.60;99.90;;;;;;5095030;28;20400;-67
2021/10/27 01:24:46;;;;;;;5.60;5.20;;;11.60;99.90;;;;;;5094990;28;20478;-67
2021/10/27 01:27:12;;;;;;;11.17;7.30;;;11.60;99.90;;;;;;5094859;28;20803;-68
2021/10/27 01:29:38;;;;;;;6.07;4.60;;;11.60;99.90;;;;;;5094477;28;20479;-67
2021/10/27 01:32:04;;;;;;;6.67;5.33;;;11.50;99.90;;;;;;5094677;28;20451;-67
2021/10/27 01:34:30;;;;;;;7.83;5.83;;;11.60;99.90;;;;;;5094695;28;20167;-67
2021/10/27 01:36:56;;;;;;;6.63;6.10;;;11.60;99.90;;;;;;5094692;28;20739;-67
2021/10/27 01:39:21;;;;;;;7.20;6.53;;;11.60;99.90;;;;;;5094333;28;20435;-67
2021/10/27 01:41:47;;;;;;;6.40;5.73;;;11.50;99.90;;;;;;5094518;28;20183;-67
2021/10/27 01:44:13;;;;;;;5.73;5.10;;;11.60;99.90;;;;;;5094609;28;20241;-67
2021/10/27 01:46:39;;;;;;;6.00;5.27;;;11.50;99.90;;;;;;5094431;28;20162;-67
2021/10/27 01:49:07;;;;;;;7.00;6.20;;;11.60;99.90;;;;;;5093376;28;20692;-67
2021/10/27 01:51:34;;;;;;;6.30;5.63;;;11.50;99.90;;;;;;5094338;28;20897;-67
2021/10/27 01:54:00;;;;;;;6.90;6.20;;;11.50;99.90;;;;;;5094404;28;20397;-67
2021/10/27 01:56:26;;;;;;;6.70;6.03;;;11.50;99.90;;;;;;5094289;28;20400;-67
2021/10/27 01:58:52;;;;;;;5.63;5.00;;;11.50;99.90;;;;;;5093930;28;20499;-67
2021/10/27 02:01:18;;;;;;;6.90;5.40;;;11.50;99.90;;;;;;5094128;28;20473;-67
2021/10/27 02:03:44;;;;;;;7.60;5.97;;;11.50;99.90;;;;;;5094122;28;20483;-67
2021/10/27 02:06:10;;;;;;;7.07;6.37;;;11.50;99.90;;;;;;5094147;28;20261;-67
2021/10/27 02:08:36;;;;;;;6.43;5.83;;;11.60;99.90;;;;;;5093844;28;20182;-67
2021/10/27 02:11:01;;;;;;;9.83;6.70;;;11.60;99.90;;;;;;5093689;28;20491;-67
2021/10/27 02:13:27;;;;;;;5.70;5.20;;;11.50;99.90;;;;;;5094024;28;20175;-67
2021/10/27 02:15:53;;;;;;;7.73;6.37;;;11.50;99.90;;;;;;5093973;28;20245;-67
2021/10/27 02:18:19;;;;;;;9.33;6.53;;;11.50;99.90;;;;;;5093507;28;20484;-67
2021/10/27 02:20:45;;;;;;;7.80;7.03;;;11.50;99.90;;;;;;5093580;28;20472;-67
2021/10/27 02:23:11;;;;;;;6.93;6.10;;;11.60;99.90;;;;;;5093856;28;20763;-67
2021/10/27 02:25:37;;;;;;;10.23;5.20;;;11.60;99.90;;;;;;5093764;28;20412;-67
2021/10/27 02:28:03;;;;;;;6.57;5.80;;;11.50;99.90;;;;;;5093407;28;20817;-66
2021/10/27 02:30:28;;;;;;;6.37;5.60;;;11.50;99.90;;;;;;5093301;28;20213;-67
2021/10/27 02:32:55;;;;;;;6.77;5.67;;;11.50;99.90;;;;;;5093588;28;20202;-67
2021/10/27 02:35:20;;;;;;;5.60;5.10;;;11.50;99.90;;;;;;5093667;28;20167;-67
2021/10/27 02:37:46;;;;;;;6.37;5.77;;;11.50;99.90;;;;;;5093444;28;20413;-67
2021/10/27 02:40:14;;;;;;;6.80;6.20;;;11.50;99.90;;;;;;5092982;28;20285;-67
2021/10/27 02:42:41;;;;;;;7.37;5.10;;;11.50;99.90;;;;;;5093504;28;20197;-67
2021/10/27 02:45:09;;;;;;;7.97;5.80;;;11.50;99.90;;;;;;5093364;28;20457;-67
2021/10/27 02:47:35;;;;;;;5.27;4.87;;;11.40;99.90;;;;;;5093230;28;20917;-67
2021/10/27 02:50:01;;;;;;;4.83;4.53;;;11.40;99.90;;;;;;5092853;28;20454;-67
2021/10/27 02:52:26;;;;;;;6.53;5.60;;;11.40;99.90;;;;;;5093251;28;20432;-67
2021/10/27 02:54:52;;;;;;;6.77;4.80;;;11.30;99.90;;;;;;5093214;28;20413;-67
2021/10/27 02:57:17;;;;;;;7.03;6.37;;;11.30;99.90;;;;;;5093168;28;20236;-67
2021/10/27 02:59:43;;;;;;;5.90;5.20;;;11.20;99.90;;;;;;5091850;28;20599;-67
2021/10/27 03:02:09;;;;;;;5.70;4.90;;;11.30;99.90;;;;;;5092875;28;20196;-67
2021/10/27 03:04:34;;;;;;;5.63;5.10;;;11.20;99.90;;;;;;5093041;28;20174;-67
2021/10/27 03:07:00;;;;;;;7.00;4.90;;;11.10;99.90;;;;;;5092998;28;20170;-67
2021/10/27 03:09:25;;;;;;;8.23;4.67;;;11.10;99.90;;;;;;5092517;28;20285;-67
2021/10/27 03:11:53;;;;;;;8.03;4.70;;;11.10;99.90;;;;;;5092678;28;20198;-67
2021/10/27 03:14:19;;;;;;;7.70;5.83;;;11.00;99.90;;;;;;5092827;28;20614;-67
2021/10/27 03:16:44;;;;;;;5.67;5.07;;;11.00;99.90;;;;;;5092688;28;20425;-67
2021/10/27 03:19:10;;;;;;;6.50;4.57;;;11.00;99.90;;;;;;5092307;28;20413;-67
2021/10/27 03:21:35;;;;;;;5.53;4.50;;;11.00;99.90;;;;;;5092699;28;20197;-67
2021/10/27 03:24:01;;;;;;;5.37;4.40;;;10.90;99.90;;;;;;5092633;28;20166;-67
2021/10/27 03:26:27;;;;;;;6.80;6.10;;;10.90;99.90;;;;;;5092584;28;20162;-66
2021/10/27 03:28:53;;;;;;;8.03;5.03;;;11.00;99.90;;;;;;5092160;28;20170;-67
2021/10/27 03:31:18;;;;;;;5.50;3.77;;;10.90;99.90;;;;;;5092357;28;20553;-67
2021/10/27 03:33:44;;;;;;;4.97;4.47;;;10.80;99.90;;;;;;5092540;28;20412;-67
2021/10/27 03:36:10;;;;;;;8.90;4.47;;;10.70;99.90;;;;;;5092453;28;20167;-67
2021/10/27 03:38:36;;;;;;;5.23;4.70;;;10.70;99.90;;;;;;5092138;28;20529;-67
2021/10/27 03:41:01;;;;;;;4.03;3.73;;;10.70;99.90;;;;;;5092220;28;20428;-67
2021/10/27 03:43:27;;;;;;;4.97;3.50;;;10.60;99.90;;;;;;5092388;28;20622;-67
2021/10/27 03:45:53;;;;;;;3.90;3.60;;;10.60;99.90;;;;;;5092303;28;20173;-67
2021/10/27 03:48:18;;;;;;;3.97;3.67;;;10.50;99.90;;;;;;5091966;28;20178;-67
2021/10/27 03:50:44;;;;;;;3.63;3.40;;;10.50;99.90;;;;;;5092084;28;20576;-67
2021/10/27 03:53:10;;;;;;;5.67;3.80;;;10.40;99.90;;;;;;5092233;28;20215;-67
2021/10/27 03:55:36;;;;;;;4.70;4.30;;;10.40;99.90;;;;;;5092208;28;20893;-67
2021/10/27 03:58:02;;;;;;;3.97;3.23;;;10.40;99.90;;;;;;5091789;28;20442;-67
2021/10/27 04:00:28;;;;;;;3.00;2.80;;;10.40;99.90;;;;;;5091902;28;20183;-67
2021/10/27 04:02:53;;;;;;;3.97;3.67;;;10.20;99.90;;;;;;5092174;28;20433;-67
2021/10/27 04:05:19;;;;;;;3.47;3.27;;;10.20;99.90;;;;;;5092142;28;20248;-67
2021/10/27 04:07:45;;;;;;;3.50;3.20;;;10.10;99.90;;;;;;5092084;28;20589;-67
2021/10/27 04:10:12;;;;;;;3.30;3.10;;;10.00;99.90;;;;;;5091082;28;20464;-67
2021/10/27 04:12:40;;;;;;;5.83;2.77;;;10.10;99.90;;;;;;5091962;28;20404;-67
2021/10/27 04:15:09;;;;;;;3.83;3.00;;;10.00;99.90;;;;;;5091920;28;20435;-67
2021/10/27 04:17:35;;;;;;;3.00;2.80;;;10.00;99.90;;;;;;5091917;28;20428;-67
2021/10/27 04:20:04;;;;;;;4.03;3.70;;;10.00;99.90;;;;;;5091439;28;20407;-67
2021/10/27 04:22:29;;;;;;;3.37;3.17;;;9.90;99.90;;;;;;5091916;28;20414;-67
2021/10/27 04:24:55;;;;;;;3.13;2.93;;;10.00;99.90;;;;;;5091918;28;20404;-67
2021/10/27 04:27:22;;;;;;;3.03;2.83;;;10.00;99.90;;;;;;5091771;28;20202;-67
2021/10/27 04:29:47;;;;;;;4.80;3.63;;;9.90;99.90;;;;;;5091232;28;20609;-67
2021/10/27 04:32:13;;;;;;;4.13;3.43;;;10.00;99.90;;;;;;5091785;28;20407;-66
2021/10/27 04:34:39;;;;;;;3.40;2.80;;;9.90;99.90;;;;;;5091859;28;20174;-67
2021/10/27 04:37:05;;;;;;;4.17;2.70;;;9.90;99.90;;;;;;5092060;28;20201;-67
2021/10/27 04:39:30;;;;;;;3.30;3.10;;;9.80;99.90;;;;;;5091414;28;20203;-67
2021/10/27 04:41:56;;;;;;;3.07;2.77;;;9.90;99.90;;;;;;5091570;28;20419;-67
2021/10/27 04:44:21;;;;;;;5.43;2.60;;;9.80;99.90;;;;;;5091756;28;20194;-67
2021/10/27 04:46:47;;;;;;;2.67;2.47;;;9.80;99.90;;;;;;5091648;28;20171;-67
2021/10/27 04:49:13;;;;;;;3.10;2.90;;;9.80;99.90;;;;;;5091289;28;20666;-67
2021/10/27 04:51:38;;;;;;;3.40;3.20;;;9.90;99.90;;;;;;5091532;28;20232;-67
2021/10/27 04:54:04;;;;;;;2.80;2.60;;;9.90;99.90;;;;;;5091628;28;20510;-67
2021/10/27 04:56:30;;;;;;;6.70;2.90;;;9.80;99.90;;;;;;5091518;28;20624;-67
2021/10/27 04:58:56;;;;;;;3.60;3.30;;;9.80;99.90;;;;;;5091243;28;20603;-67
2021/10/27 05:01:21;;;;;;;4.27;2.93;;;9.70;99.90;;;;;;5091445;28;20435;-66
2021/10/27 05:03:47;;;;;;;2.93;2.73;;;9.70;99.90;;;;;;5091551;28;20171;-67
2021/10/27 05:06:12;;;;;;;1.90;1.80;;;9.60;99.90;;;;;;5091766;28;20202;-66
2021/10/27 05:08:39;;;;;;;2.80;2.60;;;9.60;99.90;;;;;;5091124;28;20177;-67
2021/10/27 05:11:06;;;;;;;3.20;3.00;;;9.50;99.90;;;;;;5091106;28;20198;-66
2021/10/27 05:13:31;;;;;;;3.53;2.00;;;9.50;99.90;;;;;;5091450;28;20503;-67
2021/10/27 05:15:57;;;;;;;1.80;1.70;;;9.40;99.90;;;;;;5091380;28;20427;-67
2021/10/27 05:18:22;;;;;;;3.30;2.10;;;9.40;99.90;;;;;;5091042;28;20167;-67
2021/10/27 05:20:48;;;;;;;5.40;2.60;;;9.30;99.90;;;;;;5091359;28;20197;-67
2021/10/27 05:23:14;;;;;;;2.27;2.17;;;9.20;99.90;;;;;;5093158;28;20261;-67
2021/10/27 05:25:40;;;;;;;3.70;2.73;;;9.20;99.90;;;;;;5094894;28;20167;-67
2021/10/27 05:28:05;;;;;;;2.10;2.00;;;9.20;99.90;;;;;;5094526;28;20878;-67
2021/10/27 05:30:31;;;;;;;4.00;2.27;;;9.30;99.90;;;;;;5094639;28;20463;-67
2021/10/27 05:32:58;;;;;;;2.00;1.90;;;9.20;99.90;;;;;;5094829;28;20692;-67
2021/10/27 05:35:29;;;;;;;2.77;2.60;;;9.10;99.90;;;;;;5094834;28;20646;-67
2021/10/27 05:37:55;;;;;;;2.77;1.77;;;9.20;99.90;;;;;;5094664;28;20404;-67
2021/10/27 05:40:22;;;;;;;2.37;2.27;;;9.10;99.90;;;;;;5094217;28;20424;-67
2021/10/27 05:42:49;;;;;;;3.60;2.03;;;9.10;99.90;;;;;;5094617;28;20774;-67
2021/10/27 05:45:15;;;;;;;3.27;2.70;;;9.00;99.90;;;;;;5094573;28;20838;-67
2021/10/27 05:47:46;;;;;;;2.10;2.00;;;9.10;99.90;;;;;;5094492;28;20454;-67
2021/10/27 05:55:36;;;;;;;2.70;2.57;;;9.00;99.90;;;;;;5094405;28;20401;-72
2021/10/27 05:58:04;;;;;;;3.63;2.20;;;9.10;99.90;;;;;;5075771;28;20423;-69
2021/10/27 06:00:31;;;;;;;2.80;2.60;;;9.00;99.90;;;;;;5091416;28;20424;-69
2021/10/27 06:02:57;;;;;;;2.77;2.57;;;9.00;99.90;;;;;;5074064;28;20798;-69
2021/10/27 06:05:22;;;;;;;3.57;2.90;;;9.00;99.90;;;;;;5073759;28;20417;-68
2021/10/27 06:07:49;;;;;;;5.60;2.70;;;9.00;99.90;;;;;;5073873;28;20398;-69
2021/10/27 06:10:19;;;;;;;2.57;2.40;;;9.00;99.90;;;;;;5073127;28;20203;-69
2021/10/27 06:12:46;;;;;;;4.27;2.73;;;9.00;99.90;;;;;;5073795;28;20517;-69
2021/10/27 06:15:12;;;;;;;3.83;2.93;;;9.00;99.90;;;;;;5073741;28;20397;-70
2021/10/27 06:17:38;;;;;;;4.87;2.70;;;9.00;99.90;;;;;;5073707;28;20882;-67
2021/10/27 06:20:04;;;;;;;3.63;2.90;;;9.00;99.90;;;;;;5073142;28;20616;-67
2021/10/27 06:22:30;;;;;;;3.23;2.93;;;9.00;99.90;;;;;;5073665;28;20825;-67
2021/10/27 06:24:56;;;;;;;3.47;3.20;;;9.00;99.90;;;;;;5073648;28;20413;-68
2021/10/27 06:27:23;;;;;;;3.67;3.37;;;9.00;99.90;;;;;;5073546;28;20538;-68
2021/10/27 06:30:41;;;;;;;2.77;2.57;;;9.00;99.90;;;;;;5072904;28;20453;-68
2021/10/27 06:32:51;;;;;;;2.80;2.60;;;8.90;99.90;;;;;;5064910;28;20424;-68
2021/10/27 06:35:21;;;;;;;3.73;3.37;;;9.00;99.90;;;;;;5073882;28;20429;-69
2021/10/27 06:48:35;;;;;;;4.30;2.97;;;9.10;99.90;;;;;;5072862;28;20462;-67
2021/10/27 06:51:01;;;;;;;3.63;2.73;;;9.20;99.90;;;;;;5072787;28;20484;-68
2021/10/27 06:53:28;;;;;;;3.60;3.30;;;9.30;99.90;;;;;;5072963;28;20894;-69
2021/10/27 06:55:55;;;;;;;5.07;3.83;;;9.40;99.90;;;;;;5072999;28;20209;-69
2021/10/27 06:58:22;;;;;;;3.07;2.77;;;9.40;99.90;;;;;;5072577;28;20413;-68
2021/10/27 07:00:54;;;;;;;2.83;2.60;;;9.50;99.90;;;;;;5072471;28;20838;-68
2021/10/27 07:16:26;;;;;;;3.23;3.00;;;9.90;99.90;;;;;;5072574;28;20406;-68
2021/10/27 07:18:51;;;;;;;7.87;3.13;;;10.00;99.90;;;;;;5072075;28;20492;-67
2021/10/27 07:21:17;;;;;;;2.93;2.67;;;10.00;99.90;;;;;;5072570;28;20182;-70
2021/10/27 07:23:43;;;;;;;2.40;2.30;;;10.10;99.90;;;;;;5072508;28;20171;-68
2021/10/27 07:26:10;;;;;;;2.77;2.57;;;10.20;99.90;;;;;;5072841;28;20222;-68
2021/10/27 07:28:36;;;;;;;3.03;2.70;;;10.20;99.90;;;;;;5072062;28;20519;-68
2021/10/27 07:31:03;;;;;;;2.57;2.37;;;10.30;99.90;;;;;;5071998;28;20455;-70
2021/10/27 07:33:30;;;;;;;3.00;2.80;;;10.30;99.90;;;;;;5072260;28;20159;-68
2021/10/27 07:41:24;;;;;;;4.30;3.10;;;10.50;99.90;;;;;;5071969;28;20459;-68
2021/10/27 07:43:50;;;;;;;4.10;3.37;;;10.50;99.90;;;;;;5072105;28;20405;-67
2021/10/27 07:46:15;;;;;;;6.27;4.37;;;10.60;99.90;;;;;;5071610;28;20714;-67
2021/10/27 07:48:41;;;;;;;3.70;3.43;;;10.60;99.90;;;;;;5072116;28;20500;-70
2021/10/27 07:51:07;;;;;;;7.10;3.70;;;10.60;99.90;;;;;;5073433;28;20199;-66
2021/10/27 07:53:33;;;;;;;4.87;3.97;;;10.70;99.90;;;;;;5072069;28;20588;-67
2021/10/27 07:55:59;;;;;;;3.87;3.57;;;10.70;99.90;;;;;;5071849;28;20163;-69
2021/10/27 07:58:26;;;;;;;5.30;4.37;;;10.80;99.90;;;;;;5071619;28;20406;-67
2021/10/27 08:00:53;;;;;;;4.37;3.40;;;10.80;99.90;;;;;;5071744;28;20450;-68
2021/10/27 08:03:20;;;;;;;4.10;3.80;;;10.90;99.90;;;;;;5071886;28;20401;-67
2021/10/27 08:05:46;;;;;;;4.60;4.20;;;10.90;99.90;;;;;;5071833;28;20412;-67
2021/10/27 08:08:14;;;;;;;4.50;4.10;;;11.00;99.90;;;;;;5071367;28;20771;-68
2021/10/27 08:10:41;;;;;;;3.90;3.47;;;11.00;99.90;;;;;;5071385;28;20214;-68
2021/10/27 08:13:09;;;;;;;4.67;3.77;;;11.00;99.90;;;;;;5071811;28;20398;-68
2021/10/27 08:15:34;;;;;;;5.63;4.07;;;11.00;99.90;;;;;;5071843;28;20397;-70
2021/10/27 08:18:01;;;;;;;4.60;4.20;;;11.00;99.90;;;;;;5071433;28;20770;-67
2021/10/27 08:20:28;;;;;;;5.20;4.80;;;11.10;99.90;;;;;;5071613;28;20189;-70
2021/10/27 08:22:57;;;;;;;5.87;4.50;;;11.20;99.90;;;;;;5071528;28;20398;-70
2021/10/27 08:25:36;;;;;;;4.97;4.60;;;11.20;99.90;;;;;;5071721;28;20420;-69
2021/10/27 08:28:07;;;;;;;6.30;4.57;;;11.30;99.90;;;;;;5071479;28;20393;-69
2021/10/27 08:30:38;;;;;;;5.20;4.70;;;11.30;99.90;;;;;;5071426;28;20481;-68
2021/10/27 08:33:06;;;;;;;9.10;5.53;;;11.30;99.90;;;;;;5071632;28;20503;-67
2021/10/27 08:35:36;;;;;;;5.57;5.07;;;11.40;99.90;;;;;;5071594;28;20405;-71
2021/10/27 08:38:03;;;;;;;6.07;4.80;;;11.40;99.90;;;;;;5071338;28;20409;-70
2021/10/27 08:40:30;;;;;;;5.10;4.60;;;11.50;99.90;;;;;;5071287;28;20432;-70
2021/10/27 08:42:57;;;;;;;5.43;4.07;;;11.60;99.90;;;;;;5071569;28;20747;-68
2021/10/27 08:45:24;;;;;;;6.07;4.43;;;11.70;99.90;;;;;;5071484;28;20440;-67
2021/10/27 08:47:52;;;;;;;7.20;4.70;;;11.70;99.90;;;;;;5071272;28;20428;-68
2021/10/27 08:50:19;;;;;;;6.20;5.20;;;11.70;99.90;;;;;;5070927;28;20466;-68
2021/10/27 08:52:46;;;;;;;4.33;3.93;;;11.80;99.90;;;;;;5071324;28;20417;-68
2021/10/27 08:55:14;;;;;;;5.40;4.20;;;11.90;99.90;;;;;;5071353;28;20406;-68
2021/10/27 08:57:40;;;;;;;7.83;4.20;;;12.00;99.90;;;;;;5072458;28;20770;-67
2021/10/27 09:17:02;;;;;;;4.27;3.90;;;12.70;99.90;;;;;;5074881;28;20887;-68
2021/10/27 09:41:41;;;;;;;2.57;2.37;;;16.40;99.40;;;;;;5074450;28;20202;-67
2021/10/27 09:44:38;;;;;;;4.40;3.23;;;16.70;99.20;;;;;;5074360;28;20417;-67
2021/10/27 10:04:31;;;;;;;3.10;2.40;;;18.60;93.60;;;;;;5074037;28;20401;-68
2021/10/27 10:07:00;;;;;;;3.70;2.50;;;19.10;94.60;;;;;;5073888;28;20414;-68
2021/10/27 10:09:28;;;;;;;2.80;2.37;;;19.50;94.00;;;;;;5073424;28;20407;-68
2021/10/27 10:11:54;;;;;;;2.07;1.97;;;20.10;94.30;;;;;;5073626;28;20445;-69
2021/10/27 10:14:20;;;;;;;2.60;2.40;;;20.10;92.30;;;;;;5073760;28;20410;-68
2021/10/27 10:16:50;;;;;;;3.93;2.23;;;20.30;92.30;;;;;;5073730;28;20401;-69
2021/10/27 10:19:18;;;;;;;3.13;2.63;;;20.40;91.30;;;;;;5073294;28;21160;-68
2021/10/27 10:21:46;;;;;;;2.60;2.40;;;20.50;92.50;;;;;;5073450;28;20784;-70
2021/10/27 10:24:19;;;;;;;3.23;2.90;;;20.60;91.00;;;;;;5073713;28;20413;-72
2021/10/27 10:26:46;;;;;;;2.23;2.10;;;21.00;90.90;;;;;;5073620;28;20992;-72
2021/10/27 10:29:35;;;;;;;2.40;2.20;;;21.10;90.80;;;;;;5073302;28;20455;-72
2021/10/27 10:32:26;;;;;;;2.30;1.93;;;21.40;89.60;;;;;;5073302;28;20489;-72
2021/10/27 10:34:57;;;;;;;6.10;2.50;;;20.80;87.50;;;;;;5073538;28;20389;-70
2021/10/27 10:37:47;;;;;;;3.20;2.70;;;20.90;90.00;;;;;;5073462;28;20393;-70
2021/10/27 11:22:44;;;;;;;3.20;2.40;;;23.70;78.40;;;;;;5072382;28;20515;-73
2021/10/27 11:38:56;;;;;;;2.20;2.00;;;23.80;76.00;;;;;;5066551;28;20455;-70
2021/10/27 11:41:40;;;;;;;2.60;2.40;;;23.70;77.00;;;;;;5072104;28;20482;-71
2021/10/27 11:44:13;;;;;;;2.93;2.13;;;23.80;77.90;;;;;;5072238;28;20830;-71
2021/10/27 11:46:56;;;;;;;3.10;2.40;;;23.90;74.40;;;;;;5072197;28;20394;-72
2021/10/27 11:49:28;;;;;;;2.23;2.00;;;24.20;76.60;;;;;;5071801;28;20967;-71
2021/10/27 11:51:55;;;;;;;1.80;1.70;;;25.30;78.40;;;;;;5072061;28;20460;-71
2021/10/27 11:54:25;;;;;;;2.30;2.20;;;25.30;71.80;;;;;;5072146;28;20966;-71
2021/10/27 11:56:52;;;;;;;2.47;2.27;;;25.00;73.80;;;;;;5072054;28;20402;-72
2021/10/27 11:59:17;;;;;;;2.63;1.90;;;25.30;72.10;;;;;;5071724;28;20442;-72
2021/10/27 12:01:50;;;;;;;3.13;2.30;;;25.20;72.40;;;;;;5086304;28;20433;-71
2021/10/27 12:04:17;;;;;;;1.97;1.80;;;25.30;73.90;;;;;;5092236;28;20221;-71
2021/10/27 12:07:03;;;;;;;1.87;1.77;;;25.10;73.20;;;;;;5092223;28;20409;-71
2021/10/27 12:15:20;;;;;;;2.50;2.30;;;23.90;72.90;;;;;;5092019;28;20769;-71
2021/10/27 12:20:58;;;;;;;2.90;1.50;;;24.60;74.10;;;;;;5090507;28;20475;-71
2021/10/27 12:23:29;;;;;;;4.10;1.83;;;24.60;72.10;;;;;;4990266;28;20421;-72
2021/10/27 12:26:15;;;;;;;1.80;1.70;;;25.00;72.40;;;;;;5074334;28;20893;-72
2021/10/27 12:28:41;;;;;;;2.30;2.10;;;25.20;73.10;;;;;;5091533;28;20416;-72
2021/10/27 12:31:36;;;;;;;2.60;1.87;;;24.80;74.10;;;;;;5092052;28;20827;-71
2021/10/27 12:34:16;;;;;;;2.20;1.77;;;25.50;76.00;;;;;;5074493;28;20503;-72
2021/10/27 12:36:42;;;;;;;2.10;1.90;;;25.90;73.70;;;;;;5096757;28;20908;-69
2021/10/27 12:39:22;;;;;;;2.20;1.80;;;25.90;68.60;;;;;;5095633;28;20432;-72
2021/10/27 12:42:09;;;;;;;3.83;1.77;;;26.00;71.40;;;;;;5096002;28;20194;-69
2021/10/27 12:44:50;;;;;;;6.53;2.83;;;26.10;71.90;;;;;;5095921;28;20412;-70
2021/10/27 12:47:25;;;;;;;1.73;1.63;;;26.20;67.70;;;;;;5095875;28;20428;-69
2021/10/27 12:50:06;;;;;;;2.10;2.00;;;25.70;69.80;;;;;;5095326;28;20447;-70
2021/10/27 12:52:35;;;;;;;1.80;1.70;;;25.90;68.80;;;;;;5096066;28;20860;-70
2021/10/27 12:55:20;;;;;;;3.60;2.00;;;25.00;68.90;;;;;;5095747;28;20481;-71
2021/10/27 12:57:58;;;;;;;2.00;1.90;;;25.10;71.30;;;;;;5095602;28;20403;-70
2021/10/27 13:00:53;;;;;;;3.70;2.03;;;25.50;71.00;;;;;;5095364;28;20432;-71
2021/10/27 13:06:02;;;;;;;2.53;1.83;;;24.40;68.40;;;;;;5095487;28;20424;-71
2021/10/27 13:11:10;;;;;;;3.13;2.10;;;24.60;69.30;;;;;;5095152;28;20456;-69
2021/10/27 13:16:18;;;;;;;2.63;2.10;;;24.70;72.10;;;;;;5095277;28;20464;-70
2021/10/27 13:21:30;;;;;;;1.80;1.70;;;24.30;71.70;;;;;;5095355;28;20987;-68
2021/10/27 13:31:50;;;;;;;2.50;2.00;;;25.00;73.50;;;;;;5094906;28;20483;-69
2021/10/27 13:34:16;;;;;;;2.47;1.80;;;24.70;70.00;;;;;;5094972;28;20416;-70
2021/10/27 13:36:41;;;;;;;2.50;1.70;;;24.90;71.40;;;;;;5094979;28;20405;-68
2021/10/27 13:39:07;;;;;;;1.70;1.60;;;25.20;72.60;;;;;;5094498;28;20570;-71
2021/10/27 13:41:34;;;;;;;1.60;1.50;;;25.80;71.70;;;;;;5094636;28;20270;-71
2021/10/27 13:44:09;;;;;;;2.23;1.90;;;25.40;67.40;;;;;;5093869;28;20212;-72
2021/10/27 14:08:21;;;;;;;3.80;1.90;;;23.40;71.20;;;;;;5094190;28;20403;-70
2021/10/27 14:14:15;;;;;;;2.43;2.20;;;22.90;71.00;;;;;;5031573;28;21017;-69
2021/10/27 14:47:20;;;;;;;4.23;2.13;;;20.00;78.10;;;;;;5091656;28;20455;-70
2021/10/27 15:19:54;;;;;;;4.80;3.20;;;16.80;88.20;;;;;;5072666;28;20416;-68
2021/10/27 15:43:22;;;;;;;2.20;2.00;;;16.20;91.10;;;;;;5072348;28;20470;-69
2021/10/27 15:51:18;;;;;;;2.50;2.30;;;16.00;91.80;;;;;;5072046;28;20464;-68
2021/10/27 15:53:44;;;;;;;6.00;4.10;;;15.80;91.50;;;;;;5072141;28;20410;-67
2021/10/27 15:56:10;;;;;;;2.60;2.40;;;15.80;92.40;;;;;;5071878;28;20839;-67
2021/10/27 15:58:35;;;;;;;2.40;2.30;;;15.80;92.00;;;;;;5071445;28;20907;-68
2021/10/27 16:01:01;;;;;;;2.60;2.50;;;15.40;91.40;;;;;;5071787;28;20195;-68
2021/10/27 16:03:28;;;;;;;2.40;2.30;;;15.20;92.20;;;;;;5071917;28;20175;-68
2021/10/27 16:05:55;;;;;;;3.87;3.37;;;15.10;92.10;;;;;;5071899;28;20182;-68
2021/10/27 16:08:23;;;;;;;3.70;3.40;;;15.00;92.80;;;;;;5091955;28;20762;-68
2021/10/27 16:10:51;;;;;;;2.63;2.43;;;14.90;92.60;;;;;;5091619;28;21037;-68
2021/10/27 16:13:17;;;;;;;2.80;2.60;;;14.70;93.20;;;;;;5091989;28;20473;-68
2021/10/27 16:15:56;;;;;;;3.80;3.50;;;14.60;93.70;;;;;;5091755;28;20416;-68
2021/10/27 16:18:24;;;;;;;5.20;4.63;;;14.50;93.50;;;;;;5091943;28;20770;-67
2021/10/27 16:20:49;;;;;;;5.33;3.13;;;14.20;94.00;;;;;;5091748;28;20429;-68
2021/10/27 16:23:15;;;;;;;4.13;3.83;;;14.00;94.30;;;;;;5091878;28;20408;-68
2021/10/27 16:25:43;;;;;;;4.17;3.87;;;13.80;94.70;;;;;;5091991;28;20185;-67
2021/10/27 16:28:10;;;;;;;4.37;4.07;;;13.80;95.40;;;;;;5091525;28;20454;-68
2021/10/27 16:30:37;;;;;;;3.53;3.20;;;13.80;95.30;;;;;;5091404;28;20823;-67
2021/10/27 16:33:03;;;;;;;3.93;3.63;;;13.60;95.70;;;;;;5091900;28;20405;-67
2021/10/27 16:35:28;;;;;;;3.60;3.30;;;13.40;95.90;;;;;;5091822;28;20419;-67
2021/10/27 16:37:55;;;;;;;3.77;3.50;;;13.30;96.50;;;;;;5091633;28;20443;-67
2021/10/27 16:40:21;;;;;;;5.90;3.27;;;13.30;97.00;;;;;;5091381;28;20186;-67
2021/10/27 16:42:48;;;;;;;6.03;3.67;;;13.30;97.20;;;;;;5091667;28;20408;-67
2021/10/27 16:45:16;;;;;;;4.20;3.90;;;13.30;97.10;;;;;;5091078;28;20912;-67
2021/10/27 16:47:42;;;;;;;3.50;3.17;;;13.20;97.00;;;;;;5090139;28;20955;-67
2021/10/27 16:50:09;;;;;;;6.07;3.70;;;13.20;97.70;;;;;;5089354;28;20533;-68
2021/10/27 16:52:35;;;;;;;5.43;4.00;;;13.00;97.70;;;;;;5090926;28;20501;-68
2021/10/27 16:55:03;;;;;;;3.70;3.40;;;12.80;98.40;;;;;;5091622;28;20769;-68
2021/10/27 16:57:29;;;;;;;4.93;3.00;;;12.90;98.50;;;;;;5091554;28;20411;-69
2021/10/27 16:59:55;;;;;;;4.17;3.87;;;12.80;98.60;;;;;;5091205;28;20924;-68
2021/10/27 17:02:21;;;;;;;5.30;3.70;;;12.80;98.80;;;;;;5091542;28;20470;-67
2021/10/27 17:04:47;;;;;;;4.80;3.90;;;12.70;98.80;;;;;;5091659;28;20400;-67
2021/10/27 17:07:14;;;;;;;5.00;4.13;;;12.60;99.20;;;;;;5091500;28;20171;-68
2021/10/27 17:09:39;;;;;;;4.40;4.00;;;12.60;99.30;;;;;;5090062;28;20175;-68
2021/10/27 17:12:07;;;;;;;5.83;3.80;;;12.40;99.70;;;;;;5091230;28;20425;-67
2021/10/27 17:14:34;;;;;;;4.40;4.10;;;12.30;99.90;;;;;;5091434;28;20659;-68
2021/10/27 17:17:01;;;;;;;5.20;4.00;;;12.30;99.90;;;;;;5091656;28;20907;-67
2021/10/27 17:19:26;;;;;;;6.73;4.27;;;12.30;99.90;;;;;;5093315;28;20495;-67
2021/10/27 17:21:52;;;;;;;4.87;3.33;;;12.20;99.90;;;;;;5095041;28;20516;-68
2021/10/27 17:24:18;;;;;;;4.87;4.37;;;12.20;99.90;;;;;;5095056;28;20245;-68
2021/10/27 17:26:45;;;;;;;4.10;3.80;;;12.30;99.90;;;;;;5094870;28;20174;-68
2021/10/27 17:29:11;;;;;;;5.07;4.77;;;12.20;99.90;;;;;;5094618;28;20403;-68
2021/10/27 17:31:37;;;;;;;5.10;4.57;;;12.20;99.90;;;;;;5094780;28;20480;-67
2021/10/27 17:34:03;;;;;;;4.70;4.00;;;12.20;99.90;;;;;;5094812;28;20440;-67
2021/10/27 17:36:28;;;;;;;4.70;3.67;;;12.10;99.90;;;;;;5094878;28;20515;-67
2021/10/27 17:38:54;;;;;;;4.57;4.10;;;12.10;99.90;;;;;;5094337;28;20190;-73